Time;durP1;ratioP1;P1;durP2;ratioP2;P2;SDS_P1;SDS_P2;PMS_P1;PMS_P2;Temp;Humidity;BMP_temperature;BMP_pressure;BME280_temperature;BME280_humidity;BME280_pressure;Samples;Min_cycle;Max_cycle;Signal;HPM_P1;HPM_P2
2023/02/16 00:01:52;;;;;;;54.53;33.77;;;-1.90;99.90;;;;;;5008766;28;20042;-82
2023/02/16 00:04:23;;;;;;;56.63;34.23;;;-1.90;99.90;;;;;;5008071;28;20025;-80
2023/02/16 00:06:52;;;;;;;57.50;33.53;;;-1.90;99.90;;;;;;5008544;28;20026;-81
2023/02/16 00:09:27;;;;;;;56.30;33.77;;;-2.00;99.90;;;;;;5007317;28;20029;-81
2023/02/16 00:14:38;;;;;;;61.67;35.33;;;-2.00;99.90;;;;;;5009832;28;20037;-81
2023/02/16 00:17:04;;;;;;;52.17;33.30;;;-2.00;99.90;;;;;;5005050;28;20025;-81
2023/02/16 00:19:38;;;;;;;56.97;34.53;;;-1.90;99.90;;;;;;5006986;28;20033;-82
2023/02/16 00:22:06;;;;;;;55.63;32.97;;;-1.90;99.90;;;;;;5007094;28;20038;-82
2023/02/16 00:24:34;;;;;;;53.60;32.30;;;-2.00;99.90;;;;;;5006252;28;20030;-81
2023/02/16 00:27:03;;;;;;;54.63;32.90;;;-2.00;99.90;;;;;;5007395;28;20173;-81
2023/02/16 00:29:32;;;;;;;55.00;33.57;;;-2.00;99.90;;;;;;5007308;28;20050;-81
2023/02/16 00:31:59;;;;;;;52.53;32.50;;;-2.00;99.90;;;;;;5005956;28;20017;-82
2023/02/16 00:34:36;;;;;;;50.37;32.60;;;-2.00;99.90;;;;;;5005526;28;20105;-81
2023/02/16 00:37:04;;;;;;;49.23;31.07;;;-2.00;99.90;;;;;;5005583;28;20041;-82
2023/02/16 00:39:33;;;;;;;50.53;32.00;;;-2.00;99.90;;;;;;5006573;28;20057;-81
2023/02/16 00:42:05;;;;;;;47.50;30.43;;;-2.00;99.90;;;;;;5004409;28;20029;-81
2023/02/16 00:44:41;;;;;;;48.63;29.77;;;-2.10;99.90;;;;;;5007126;28;20056;-81
2023/02/16 00:47:24;;;;;;;46.97;29.97;;;-2.10;99.90;;;;;;5006835;28;20394;-82
2023/02/16 00:49:52;;;;;;;44.00;28.90;;;-2.10;99.90;;;;;;5007007;28;20038;-81
2023/02/16 00:52:41;;;;;;;44.60;30.33;;;-2.10;99.90;;;;;;5004693;28;20069;-81
2023/02/16 00:55:12;;;;;;;47.23;30.10;;;-2.20;99.90;;;;;;5005527;28;20374;-81
2023/02/16 00:57:43;;;;;;;43.20;29.93;;;-2.20;99.90;;;;;;5004056;28;20025;-82
2023/02/16 01:00:24;;;;;;;44.37;29.70;;;-2.20;99.90;;;;;;5004594;28;20069;-81
2023/02/16 01:02:59;;;;;;;49.07;29.30;;;-2.20;99.90;;;;;;5004484;28;20026;-81
2023/02/16 01:05:25;;;;;;;46.63;30.83;;;-2.20;99.90;;;;;;5002940;28;20019;-82
2023/02/16 01:13:21;;;;;;;;;;;-2.20;99.90;;;;;;5005570;28;20504;-81
2023/02/16 01:15:47;;;;;;;42.87;26.57;;;-2.30;99.90;;;;;;5003511;28;19910;-81
2023/02/16 01:18:15;;;;;;;43.30;28.40;;;-2.30;99.90;;;;;;5001759;28;20490;-81
2023/02/16 01:20:41;;;;;;;42.97;28.33;;;-2.30;99.90;;;;;;5004356;28;20411;-81
2023/02/16 01:23:06;;;;;;;42.20;27.93;;;-2.40;99.90;;;;;;5007480;28;20034;-81
2023/02/16 01:25:32;;;;;;;44.03;28.70;;;-2.40;99.90;;;;;;5004196;28;20165;-81
2023/02/16 01:27:58;;;;;;;42.70;27.83;;;-2.40;99.90;;;;;;5005456;28;20467;-81
2023/02/16 01:30:24;;;;;;;45.23;28.13;;;-2.40;99.90;;;;;;5005854;28;20026;-81
2023/02/16 01:32:50;;;;;;;46.23;27.67;;;-2.40;99.90;;;;;;5004942;28;20030;-81
2023/02/16 01:35:26;;;;;;;41.27;26.60;;;-2.40;99.90;;;;;;5004464;28;20137;-81
2023/02/16 01:37:52;;;;;;;41.70;26.93;;;-2.40;99.90;;;;;;5003278;28;20029;-82
2023/02/16 01:40:33;;;;;;;43.20;27.87;;;-2.50;99.90;;;;;;5004810;28;20022;-81
2023/02/16 01:43:17;;;;;;;40.57;27.17;;;-2.40;99.90;;;;;;5005707;28;20434;-81
2023/02/16 01:45:49;;;;;;;42.90;27.93;;;-2.40;99.90;;;;;;5004541;28;20026;-81
2023/02/16 01:48:24;;;;;;;42.53;28.67;;;-2.40;99.90;;;;;;5006995;28;20018;-81
2023/02/16 01:50:55;;;;;;;43.03;28.50;;;-2.40;99.90;;;;;;5005698;28;20046;-81
2023/02/16 01:53:32;;;;;;;41.37;26.83;;;-2.40;99.90;;;;;;5004808;28;20053;-81
2023/02/16 01:56:05;;;;;;;43.17;27.67;;;-2.40;99.90;;;;;;5001301;28;20494;-81
2023/02/16 01:58:45;;;;;;;40.87;27.27;;;-2.40;99.90;;;;;;5003456;28;20079;-81
2023/02/16 02:01:32;;;;;;;39.77;26.00;;;-2.40;99.90;;;;;;5003789;28;20042;-81
2023/02/16 02:06:41;;;;;;;40.80;26.07;;;-2.40;99.90;;;;;;5004308;28;20068;-81
2023/02/16 02:09:35;;;;;;;39.60;26.10;;;-2.40;99.90;;;;;;5005663;28;20471;-81
2023/02/16 02:12:38;;;;;;;41.37;26.93;;;-2.40;99.90;;;;;;5005531;28;20479;-81
2023/02/16 02:15:04;;;;;;;39.17;25.37;;;-2.40;99.90;;;;;;5013805;28;20057;-81
2023/02/16 02:17:36;;;;;;;40.10;25.53;;;-2.40;99.90;;;;;;5003860;28;20060;-81
2023/02/16 02:23:29;;;;;;;40.30;26.00;;;-2.40;99.90;;;;;;5004189;28;20021;-81
2023/02/16 02:23:34;;;;;;;39.80;27.00;;;-2.40;99.90;;;;;;5004035;28;20073;-82
2023/02/16 02:26:37;;;;;;;40.37;24.47;;;-2.40;99.90;;;;;;5003444;28;20096;-81
2023/02/16 02:29:15;;;;;;;37.87;24.00;;;-2.50;99.90;;;;;;5003488;28;20780;-81
2023/02/16 02:32:06;;;;;;;40.40;25.80;;;-2.50;99.90;;;;;;5015135;28;20022;-81
2023/02/16 02:34:45;;;;;;;38.13;24.07;;;-2.50;99.90;;;;;;5003612;28;20065;-81
2023/02/16 02:37:22;;;;;;;37.13;24.83;;;-2.50;99.90;;;;;;5002778;28;20064;-81
2023/02/16 02:40:08;;;;;;;39.23;25.77;;;-2.50;99.90;;;;;;5004298;28;20029;-81
2023/02/16 02:43:13;;;;;;;38.55;23.88;;;-2.60;99.90;;;;;;5009148;28;20123;-81
2023/02/16 02:46:11;;;;;;;40.47;24.77;;;-2.60;99.90;;;;;;5008747;28;20072;-82
2023/02/16 02:48:37;;;;;;;40.80;25.63;;;-2.60;99.90;;;;;;5007845;28;20404;-81
2023/02/16 02:51:29;;;;;;;36.37;24.77;;;-2.60;99.90;;;;;;5007696;28;20030;-81
2023/02/16 03:02:22;;;;;;;35.17;23.10;;;-2.70;99.90;;;;;;5009865;28;20064;-82
2023/02/16 03:04:48;;;;;;;35.50;23.73;;;-2.70;99.90;;;;;;5008740;28;20133;-81
2023/02/16 03:07:15;;;;;;;39.07;23.47;;;-2.70;99.90;;;;;;5007707;28;20032;-81
2023/02/16 03:09:43;;;;;;;33.50;23.10;;;-2.70;99.90;;;;;;5004690;28;20116;-81
2023/02/16 03:15:01;;;;;;;35.73;22.93;;;-2.80;99.90;;;;;;5008443;28;20395;-81
2023/02/16 03:31:26;;;;;;;35.13;22.93;;;-2.90;99.90;;;;;;5007567;28;21159;-81
2023/02/16 03:33:54;;;;;;;34.70;21.90;;;-2.90;99.90;;;;;;5005185;28;20104;-81
2023/02/16 03:36:25;;;;;;;34.90;22.00;;;-2.90;99.90;;;;;;5004865;28;20040;-81
2023/02/16 03:38:54;;;;;;;36.77;23.93;;;-3.00;99.90;;;;;;5005714;28;20148;-82
2023/02/16 03:41:20;;;;;;;33.37;22.60;;;-3.00;99.90;;;;;;5006929;28;20037;-81
2023/02/16 03:43:46;;;;;;;36.77;23.77;;;-3.00;99.90;;;;;;5006211;28;20018;-81
2023/02/16 03:46:13;;;;;;;36.93;22.90;;;-3.00;99.90;;;;;;5005297;28;20033;-81
2023/02/16 03:48:39;;;;;;;38.37;24.10;;;-3.00;99.90;;;;;;5003576;28;20072;-81
2023/02/16 03:51:05;;;;;;;35.73;23.47;;;-3.00;99.90;;;;;;5006859;28;20030;-81
2023/02/16 03:53:32;;;;;;;40.33;24.53;;;-3.00;99.90;;;;;;5005286;28;20057;-81
2023/02/16 03:55:58;;;;;;;39.00;25.27;;;-3.00;99.90;;;;;;5001513;28;20038;-81
2023/02/16 03:58:24;;;;;;;37.40;22.90;;;-3.00;99.90;;;;;;5007871;28;20502;-81
2023/02/16 04:00:51;;;;;;;41.47;24.47;;;-3.00;99.90;;;;;;5008521;28;20017;-81
2023/02/16 04:03:16;;;;;;;39.10;24.63;;;-3.00;99.90;;;;;;5006063;28;20033;-81
2023/02/16 04:05:43;;;;;;;38.53;23.73;;;-3.10;99.90;;;;;;5007100;28;20022;-81
2023/02/16 04:08:09;;;;;;;38.10;23.80;;;-3.00;99.90;;;;;;5008937;28;20015;-81
2023/02/16 04:10:36;;;;;;;37.50;23.87;;;-3.00;99.90;;;;;;5005305;28;20030;-81
2023/02/16 04:13:02;;;;;;;39.93;24.30;;;-3.10;99.90;;;;;;5005812;28;20105;-82
2023/02/16 04:15:29;;;;;;;36.37;23.07;;;-3.10;99.90;;;;;;5007612;28;20134;-82
2023/02/16 04:17:55;;;;;;;36.70;23.93;;;-3.00;99.90;;;;;;5006664;28;20029;-81
2023/02/16 04:20:24;;;;;;;37.03;23.90;;;-3.00;99.90;;;;;;5005985;28;20838;-82
2023/02/16 04:22:50;;;;;;;37.50;24.00;;;-3.10;99.90;;;;;;5007933;28;20069;-82
2023/02/16 04:25:20;;;;;;;38.17;24.90;;;-3.00;99.90;;;;;;5006493;28;20390;-81
2023/02/16 04:27:47;;;;;;;38.50;24.07;;;-3.00;99.90;;;;;;5004905;28;20463;-81
2023/02/16 04:30:17;;;;;;;38.53;24.17;;;-3.00;99.90;;;;;;5003800;28;20182;-82
2023/02/16 04:32:43;;;;;;;38.10;25.03;;;-3.00;99.90;;;;;;4997630;28;20021;-82
2023/02/16 04:35:09;;;;;;;40.00;24.43;;;-3.00;99.90;;;;;;4999890;28;20069;-82
2023/02/16 04:37:35;;;;;;;38.33;24.97;;;-3.00;99.90;;;;;;5003884;28;20523;-81
2023/02/16 04:40:01;;;;;;;36.83;23.07;;;-3.00;99.90;;;;;;5005767;28;20108;-82
2023/02/16 04:42:27;;;;;;;38.70;24.00;;;-3.00;99.90;;;;;;5004765;28;20026;-82
2023/02/16 04:44:52;;;;;;;42.00;25.23;;;-3.10;99.90;;;;;;5005916;28;20025;-81
2023/02/16 04:47:18;;;;;;;39.53;24.23;;;-3.00;99.90;;;;;;5003597;28;20938;-81
2023/02/16 04:49:44;;;;;;;35.90;23.80;;;-3.00;99.90;;;;;;5007443;28;20854;-81
2023/02/16 04:52:12;;;;;;;41.00;25.10;;;-3.10;99.90;;;;;;5003503;28;20042;-81
2023/02/16 04:54:37;;;;;;;38.50;23.63;;;-3.10;99.90;;;;;;5004599;28;20377;-81
2023/02/16 04:57:03;;;;;;;35.60;22.07;;;-3.10;99.90;;;;;;5004441;28;20112;-81
2023/02/16 04:59:29;;;;;;;35.93;23.63;;;-3.10;99.90;;;;;;5003594;28;20101;-81
2023/02/16 05:01:56;;;;;;;43.83;26.50;;;-3.10;99.90;;;;;;5003463;28;20172;-81
2023/02/16 05:04:22;;;;;;;46.07;26.63;;;-3.10;99.90;;;;;;4999469;28;20026;-81
2023/02/16 05:06:47;;;;;;;49.70;28.80;;;-3.10;99.90;;;;;;5002136;28;20045;-81
2023/02/16 05:09:15;;;;;;;56.83;30.37;;;-3.10;99.90;;;;;;5001246;28;20014;-81
2023/02/16 05:14:46;;;;;;;61.27;30.20;;;-3.20;99.90;;;;;;5003206;28;20193;-81
2023/02/16 05:17:18;;;;;;;50.80;28.10;;;-3.20;99.90;;;;;;5004815;28;20463;-81
2023/02/16 05:19:46;;;;;;;44.77;26.80;;;-3.20;99.90;;;;;;5002424;28;20030;-81
2023/02/16 05:22:12;;;;;;;44.80;25.90;;;-3.10;99.90;;;;;;5000339;28;20106;-81
2023/02/16 05:24:38;;;;;;;44.27;25.93;;;-3.10;99.90;;;;;;4997025;28;20018;-81
2023/02/16 05:27:06;;;;;;;44.30;26.23;;;-3.20;99.90;;;;;;5004326;28;20371;-81
2023/02/16 05:29:32;;;;;;;47.03;26.23;;;-3.10;99.90;;;;;;5002277;28;20071;-81
2023/02/16 05:31:59;;;;;;;44.30;27.40;;;-3.20;99.90;;;;;;5002133;28;20391;-81
2023/02/16 05:34:24;;;;;;;45.87;27.60;;;-3.20;99.90;;;;;;5003012;28;20037;-81
2023/02/16 05:36:51;;;;;;;45.13;25.87;;;-3.20;99.90;;;;;;5001572;28;20383;-81
2023/02/16 05:39:16;;;;;;;43.30;26.37;;;-3.20;99.90;;;;;;5003063;28;20026;-81
2023/02/16 05:41:42;;;;;;;47.63;27.50;;;-3.20;99.90;;;;;;5003827;28;20510;-81
2023/02/16 05:44:08;;;;;;;52.17;27.83;;;-3.20;99.90;;;;;;5002062;28;20026;-81
2023/02/16 05:46:36;;;;;;;50.50;28.23;;;-3.20;99.90;;;;;;5000762;28;20038;-81
2023/02/16 05:49:03;;;;;;;53.17;27.83;;;-3.20;99.90;;;;;;4998704;28;20528;-81
2023/02/16 05:51:29;;;;;;;55.70;29.00;;;-3.20;99.90;;;;;;4998145;28;20068;-81
2023/02/16 05:53:55;;;;;;;53.80;28.93;;;-3.20;99.90;;;;;;5012362;28;20034;-81
2023/02/16 05:56:21;;;;;;;57.33;29.10;;;-3.20;99.90;;;;;;4999212;28;20045;-81
2023/02/16 05:58:47;;;;;;;55.47;28.93;;;-3.20;99.90;;;;;;4995993;28;20017;-81
2023/02/16 06:01:13;;;;;;;49.50;28.73;;;-3.20;99.90;;;;;;4992721;28;20073;-81
2023/02/16 06:03:39;;;;;;;45.00;25.33;;;-3.20;99.90;;;;;;4997230;28;20026;-81
2023/02/16 06:06:05;;;;;;;45.20;26.73;;;-3.20;99.90;;;;;;4997282;28;20430;-81
2023/02/16 06:08:32;;;;;;;45.03;25.93;;;-3.20;99.90;;;;;;4996363;28;20474;-81
2023/02/16 06:10:58;;;;;;;46.60;27.00;;;-3.20;99.90;;;;;;4995838;28;20049;-81
2023/02/16 06:13:24;;;;;;;43.50;26.03;;;-3.20;99.90;;;;;;4998116;28;20038;-80
2023/02/16 06:15:52;;;;;;;42.80;25.20;;;-3.20;99.90;;;;;;4997891;28;20040;-80
2023/02/16 06:18:18;;;;;;;39.37;23.47;;;-3.10;99.90;;;;;;5002873;28;20219;-80
2023/02/16 06:20:44;;;;;;;38.13;21.70;;;-3.10;99.90;;;;;;5001724;28;20704;-79
2023/02/16 06:23:12;;;;;;;33.57;21.73;;;-3.10;99.90;;;;;;4998681;28;20072;-79
2023/02/16 06:25:41;;;;;;;35.27;21.13;;;-3.10;99.90;;;;;;4998722;28;20022;-80
2023/02/16 06:28:06;;;;;;;34.63;19.83;;;-3.10;99.90;;;;;;4998450;28;20029;-87
2023/02/16 06:30:35;;;;;;;37.77;20.87;;;-3.10;99.90;;;;;;4999332;28;20030;-82
2023/02/16 06:33:01;;;;;;;32.53;19.63;;;-3.10;99.90;;;;;;5001037;28;20048;-82
2023/02/16 06:35:31;;;;;;;30.27;18.63;;;-3.00;99.90;;;;;;4999544;28;20036;-82
2023/02/16 06:37:58;;;;;;;30.57;20.07;;;-3.00;99.90;;;;;;4997109;28;20038;-80
2023/02/16 06:40:24;;;;;;;30.83;19.27;;;-3.00;99.90;;;;;;4999786;28;20026;-80
2023/02/16 06:42:50;;;;;;;34.50;19.30;;;-3.00;99.90;;;;;;4999783;28;20028;-79
2023/02/16 06:45:15;;;;;;;31.07;19.60;;;-2.90;99.90;;;;;;5001232;28;20026;-80
2023/02/16 06:47:41;;;;;;;30.03;18.83;;;-2.90;99.90;;;;;;5001095;28;20033;-80
2023/02/16 06:50:08;;;;;;;31.60;18.97;;;-2.90;99.90;;;;;;5000986;28;20832;-80
2023/02/16 06:52:34;;;;;;;30.53;19.43;;;-2.90;99.90;;;;;;5000755;28;20105;-80
2023/02/16 06:55:00;;;;;;;34.23;20.00;;;-2.90;99.90;;;;;;4995383;28;20690;-80
2023/02/16 06:57:25;;;;;;;36.57;21.80;;;-2.90;99.90;;;;;;5001311;28;20397;-77
2023/02/16 06:59:51;;;;;;;34.83;20.93;;;-2.80;99.90;;;;;;5002542;28;20399;-77
2023/02/16 07:02:16;;;;;;;35.70;20.73;;;-2.80;99.90;;;;;;5002935;28;20033;-77
2023/02/16 07:04:42;;;;;;;35.57;21.33;;;-2.80;99.90;;;;;;5003184;28;20026;-77
2023/02/16 07:07:08;;;;;;;34.17;20.67;;;-2.70;99.90;;;;;;5002101;28;20022;-77
2023/02/16 07:09:36;;;;;;;33.23;20.17;;;-2.60;99.90;;;;;;5000086;28;20494;-77
2023/02/16 07:12:02;;;;;;;33.97;19.67;;;-2.50;99.90;;;;;;5004297;28;20044;-79
2023/02/16 07:14:29;;;;;;;30.37;19.13;;;-2.50;99.90;;;;;;4996834;28;20040;-79
2023/02/16 07:16:57;;;;;;;34.37;21.20;;;-2.40;99.90;;;;;;4999395;28;20061;-77
2023/02/16 07:19:24;;;;;;;37.17;21.90;;;-2.30;99.90;;;;;;5003697;28;20029;-77
2023/02/16 07:21:49;;;;;;;33.37;20.80;;;-2.20;99.90;;;;;;4998641;28;20037;-77
2023/02/16 07:24:15;;;;;;;34.90;21.83;;;-2.10;99.90;;;;;;5003283;28;20026;-76
2023/02/16 07:26:41;;;;;;;33.90;21.20;;;-2.00;99.90;;;;;;5002097;28;20038;-76
2023/02/16 07:29:06;;;;;;;38.40;22.93;;;-1.90;99.90;;;;;;4999647;28;20046;-76
2023/02/16 07:31:32;;;;;;;34.97;21.63;;;-1.80;99.90;;;;;;5006744;28;20362;-76
2023/02/16 07:33:57;;;;;;;37.23;22.37;;;-1.70;99.90;;;;;;5003184;28;20466;-76
2023/02/16 07:36:23;;;;;;;35.03;21.63;;;-1.60;99.90;;;;;;4999014;28;20156;-76
2023/02/16 07:38:48;;;;;;;35.53;22.67;;;-1.50;99.90;;;;;;5003363;28;20060;-76
2023/02/16 07:41:14;;;;;;;35.83;23.10;;;-1.40;99.90;;;;;;5003299;28;20040;-76
2023/02/16 07:43:41;;;;;;;39.13;23.03;;;-1.30;99.90;;;;;;5001884;28;20026;-78
2023/02/16 07:46:14;;;;;;;37.60;22.73;;;-1.20;99.90;;;;;;5000041;28;20073;-79
2023/02/16 07:48:45;;;;;;;36.87;22.43;;;-1.10;99.90;;;;;;5014000;28;20031;-78
2023/02/16 07:51:25;;;;;;;32.90;21.37;;;-1.00;99.90;;;;;;5003849;28;20165;-79
2023/02/16 07:53:54;;;;;;;32.23;19.47;;;-0.90;99.90;;;;;;5003709;28;20112;-76
2023/02/16 07:56:27;;;;;;;26.83;17.67;;;-0.80;99.90;;;;;;5003264;28;20125;-78
2023/02/16 07:58:57;;;;;;;30.20;17.93;;;-0.70;99.90;;;;;;5001921;28;20033;-76
2023/02/16 08:01:25;;;;;;;35.83;20.67;;;-0.70;99.90;;;;;;5004941;28;20023;-76
2023/02/16 08:03:53;;;;;;;36.00;24.17;;;-0.50;99.90;;;;;;5004617;28;20022;-76
2023/02/16 08:06:22;;;;;;;42.73;24.33;;;-0.50;99.90;;;;;;5004633;28;20101;-76
2023/02/16 08:08:48;;;;;;;42.60;27.90;;;-0.40;99.90;;;;;;5005495;28;20064;-76
2023/02/16 08:11:22;;;;;;;49.67;27.63;;;-0.30;99.90;;;;;;5005746;28;20026;-76
2023/02/16 08:13:48;;;;;;;40.73;24.70;;;-0.20;99.90;;;;;;5004814;28;20128;-76
2023/02/16 08:16:21;;;;;;;32.93;22.13;;;-0.10;99.90;;;;;;5000597;28;20160;-78
2023/02/16 08:18:47;;;;;;;29.77;19.83;;;0.00;99.90;;;;;;4994929;28;20387;-78
2023/02/16 08:21:16;;;;;;;27.20;17.67;;;0.10;99.90;;;;;;4995553;28;20030;-78
2023/02/16 08:23:56;;;;;;;28.00;18.40;;;0.20;99.90;;;;;;5000960;28;20021;-75
2023/02/16 08:26:24;;;;;;;31.80;18.60;;;0.30;99.90;;;;;;5008044;28;20053;-76
2023/02/16 08:28:51;;;;;;;30.27;18.43;;;0.40;99.90;;;;;;5003589;28;20010;-78
2023/02/16 08:31:19;;;;;;;27.47;17.77;;;0.60;99.90;;;;;;5000451;28;20022;-76
2023/02/16 08:33:46;;;;;;;27.93;18.10;;;0.70;99.90;;;;;;4999571;28;20034;-78
2023/02/16 08:36:20;;;;;;;28.50;19.10;;;0.80;99.90;;;;;;4999007;28;20113;-78
2023/02/16 08:38:49;;;;;;;31.00;18.53;;;1.00;99.90;;;;;;5012009;28;20129;-79
2023/02/16 08:41:15;;;;;;;28.33;18.70;;;1.10;99.90;;;;;;5000333;28;20029;-79
2023/02/16 08:43:40;;;;;;;31.07;19.47;;;1.20;99.90;;;;;;5003947;28;20097;-79
2023/02/16 08:46:09;;;;;;;26.10;17.57;;;1.30;99.90;;;;;;5003070;28;20105;-79
2023/02/16 08:48:35;;;;;;;25.27;17.50;;;1.40;99.90;;;;;;5001603;28;20090;-79
2023/02/16 08:51:02;;;;;;;30.13;18.40;;;1.50;99.90;;;;;;5007554;28;20029;-79
2023/02/16 08:53:32;;;;;;;27.97;18.30;;;1.60;99.90;;;;;;5004384;28;20046;-80
2023/02/16 08:55:59;;;;;;;28.87;19.77;;;1.70;99.90;;;;;;5006964;28;20379;-79
2023/02/16 08:58:25;;;;;;;29.47;19.43;;;1.80;99.90;;;;;;5007103;28;20128;-79
2023/02/16 09:00:51;;;;;;;29.60;18.40;;;1.90;99.90;;;;;;4999777;28;20050;-79
2023/02/16 09:03:17;;;;;;;33.80;20.07;;;2.00;99.90;;;;;;5001989;28;20050;-79
2023/02/16 09:05:44;;;;;;;28.07;19.03;;;2.10;99.90;;;;;;5005922;28;20107;-79
2023/02/16 09:08:10;;;;;;;29.43;18.60;;;2.10;99.90;;;;;;5002837;28;20018;-79
2023/02/16 09:10:35;;;;;;;29.23;19.43;;;2.20;99.90;;;;;;4998173;28;20022;-76
2023/02/16 09:13:02;;;;;;;26.87;18.67;;;2.30;99.90;;;;;;5003106;28;20033;-76
2023/02/16 09:15:27;;;;;;;26.27;17.77;;;2.40;99.90;;;;;;5003017;28;20485;-76
2023/02/16 09:17:53;;;;;;;27.03;17.17;;;2.60;99.90;;;;;;5005236;28;20029;-76
2023/02/16 09:20:19;;;;;;;23.57;15.53;;;2.70;99.90;;;;;;5002886;28;20100;-76
2023/02/16 09:22:45;;;;;;;21.03;14.23;;;2.90;99.90;;;;;;4995944;28;20037;-77
2023/02/16 09:25:12;;;;;;;20.07;13.90;;;3.10;99.90;;;;;;4992767;28;20018;-76
2023/02/16 09:27:38;;;;;;;20.30;13.07;;;3.30;99.90;;;;;;4997811;28;21127;-77
2023/02/16 09:30:04;;;;;;;18.10;12.43;;;3.50;99.90;;;;;;4998833;28;20022;-76
2023/02/16 09:32:30;;;;;;;30.07;14.27;;;3.80;99.90;;;;;;4997618;28;20027;-76
2023/02/16 09:34:56;;;;;;;22.10;13.00;;;4.00;99.90;;;;;;4992599;28;20033;-79
2023/02/16 09:37:33;;;;;;;17.07;11.73;;;4.30;99.90;;;;;;4990493;28;20994;-77
2023/02/16 09:40:03;;;;;;;16.17;10.63;;;4.60;99.90;;;;;;4999206;28;20189;-76
2023/02/16 09:42:51;;;;;;;17.90;11.00;;;4.80;99.90;;;;;;4998227;28;20023;-76
2023/02/16 09:45:22;;;;;;;16.53;10.27;;;5.10;99.90;;;;;;5001750;28;20034;-76
2023/02/16 09:47:53;;;;;;;15.20;9.47;;;5.40;99.90;;;;;;4999455;28;20026;-76
2023/02/16 09:50:33;;;;;;;18.43;9.47;;;5.60;99.90;;;;;;4997535;28;20037;-79
2023/02/16 09:53:20;;;;;;;15.70;9.47;;;5.90;99.90;;;;;;4996670;28;20049;-79
2023/02/16 09:55:58;;;;;;;16.73;9.93;;;6.20;99.90;;;;;;4993026;28;20083;-79
2023/02/16 09:58:33;;;;;;;17.40;9.67;;;6.50;99.90;;;;;;4996130;28;20034;-79
2023/02/16 10:01:12;;;;;;;17.02;9.32;;;6.80;99.90;;;;;;4995668;28;20049;-79
2023/02/16 10:04:06;;;;;;;17.10;9.33;;;7.00;99.90;;;;;;4995711;28;20056;-79
2023/02/16 10:07:13;;;;;;;15.43;9.33;;;7.60;99.90;;;;;;4987578;28;20034;-80
2023/02/16 10:09:46;;;;;;;17.87;9.10;;;7.80;99.90;;;;;;5008904;28;20128;-80
2023/02/16 10:12:18;;;;;;;15.07;9.60;;;8.10;99.90;;;;;;4996860;28;20406;-80
2023/02/16 10:15:15;;;;;;;17.40;8.27;;;8.20;99.90;;;;;;4997200;28;20046;-80
2023/02/16 10:17:45;;;;;;;19.83;9.47;;;8.50;99.90;;;;;;4997738;28;20746;-80
2023/02/16 10:20:36;;;;;;;19.33;9.43;;;8.70;99.90;;;;;;4996807;28;20038;-79
2023/02/16 10:23:23;;;;;;;17.30;9.10;;;8.90;99.90;;;;;;4997276;28;20025;-80
2023/02/16 10:26:11;;;;;;;14.13;8.40;;;9.10;99.90;;;;;;4996004;28;20437;-80
2023/02/16 10:28:51;;;;;;;18.10;8.20;;;9.20;99.90;;;;;;4992116;28;20057;-80
2023/02/16 10:31:35;;;;;;;16.87;9.00;;;9.30;99.90;;;;;;4997608;28;20038;-80
2023/02/16 10:34:38;;;;;;;15.50;7.93;;;9.40;99.90;;;;;;4996135;28;20022;-80
2023/02/16 10:37:22;;;;;;;16.73;8.10;;;9.50;99.90;;;;;;5006710;28;20042;-80
2023/02/16 10:40:15;;;;;;;15.37;7.47;;;9.60;99.90;;;;;;5000493;28;20045;-80
2023/02/16 10:42:52;;;;;;;14.67;8.37;;;9.70;99.90;;;;;;5001447;28;20037;-80
2023/02/16 10:45:44;;;;;;;13.87;7.83;;;9.80;99.90;;;;;;4994236;28;20030;-80
2023/02/16 10:48:10;;;;;;;14.43;8.27;;;9.80;99.90;;;;;;4998697;28;20122;-80
2023/02/16 10:50:40;;;;;;;18.63;8.40;;;9.60;99.90;;;;;;5002092;28;20871;-80
2023/02/16 10:53:14;;;;;;;17.60;8.43;;;9.50;99.90;;;;;;4999407;28;20046;-80
2023/02/16 10:55:40;;;;;;;15.97;7.93;;;9.70;99.90;;;;;;5000182;28;20026;-80
2023/02/16 10:58:15;;;;;;;16.47;9.03;;;9.70;99.90;;;;;;4999527;28;20506;-80
2023/02/16 11:01:08;;;;;;;15.47;8.10;;;9.70;99.90;;;;;;4990015;28;20113;-80
2023/02/16 11:03:43;;;;;;;15.02;8.50;;;9.70;99.90;;;;;;5002998;28;21462;-80
2023/02/16 11:06:18;;;;;;;15.80;8.10;;;9.90;99.90;;;;;;4999799;28;20046;-80
2023/02/16 11:08:53;;;;;;;17.15;8.15;;;9.90;99.90;;;;;;5003399;28;20025;-80
2023/02/16 11:11:21;;;;;;;24.55;8.65;;;10.10;99.90;;;;;;5003719;28;20025;-80
2023/02/16 11:13:48;;;;;;;13.00;7.93;;;10.30;99.90;;;;;;5003585;28;20022;-80
2023/02/16 11:16:21;;;;;;;14.80;7.30;;;10.60;99.90;;;;;;5004514;28;20029;-82
2023/02/16 11:19:04;;;;;;;13.95;7.10;;;10.70;99.90;;;;;;5004221;28;20022;-80
2023/02/16 11:21:46;;;;;;;12.20;6.25;;;10.80;99.90;;;;;;5001813;28;20030;-80
2023/02/16 11:24:24;;;;;;;12.48;6.97;;;10.90;99.90;;;;;;4997595;28;20030;-80
2023/02/16 11:27:13;;;;;;;13.27;6.93;;;11.00;99.90;;;;;;4993813;28;20019;-80
2023/02/16 11:29:39;;;;;;;12.85;7.75;;;11.20;99.90;;;;;;5004084;28;20041;-80
2023/02/16 11:32:10;;;;;;;14.98;7.45;;;11.40;99.90;;;;;;5003998;28;20029;-80
2023/02/16 11:34:36;;;;;;;14.85;7.10;;;11.60;99.90;;;;;;5005462;28;20018;-80
2023/02/16 11:37:24;;;;;;;13.52;8.23;;;11.60;99.90;;;;;;5004749;28;20029;-80
2023/02/16 11:40:16;;;;;;;13.50;6.72;;;11.70;99.90;;;;;;5009238;28;20088;-72
2023/02/16 11:42:47;;;;;;;13.43;6.65;;;11.70;99.90;;;;;;5006632;28;20038;-72
2023/02/16 11:45:26;;;;;;;10.02;6.50;;;11.80;99.90;;;;;;5009571;28;20102;-72
2023/02/16 11:48:06;;;;;;;10.68;6.35;;;12.00;99.90;;;;;;5006262;28;20459;-72
2023/02/16 11:50:37;;;;;;;16.45;6.18;;;12.00;99.90;;;;;;5008764;28;20105;-73
2023/02/16 11:53:08;;;;;;;9.73;5.95;;;12.00;99.90;;;;;;5003675;28;20779;-73
2023/02/16 11:55:37;;;;;;;10.75;6.50;;;12.10;99.90;;;;;;5005823;28;20540;-72
2023/02/16 11:58:18;;;;;;;16.10;6.63;;;12.20;99.90;;;;;;5002842;28;20022;-71
2023/02/16 12:01:22;;;;;;;9.15;5.57;;;12.30;99.90;;;;;;5016431;28;20034;-74
2023/02/16 12:04:03;;;;;;;11.27;5.97;;;12.40;99.90;;;;;;5002432;28;20459;-74
2023/02/16 12:06:42;;;;;;;11.07;5.65;;;12.40;99.90;;;;;;4997884;28;20463;-80
2023/02/16 12:09:07;;;;;;;10.70;5.75;;;12.50;99.90;;;;;;5004433;28;20785;-80
2023/02/16 12:11:49;;;;;;;10.85;6.50;;;12.60;99.90;;;;;;5000995;28;20035;-88
2023/02/16 12:14:21;;;;;;;10.23;5.35;;;12.80;99.90;;;;;;5000510;28;20485;-88
2023/02/16 12:16:53;;;;;;;9.70;5.00;;;12.80;99.90;;;;;;5003417;28;20079;-80
2023/02/16 12:19:52;;;;;;;9.52;5.53;;;13.00;99.90;;;;;;5001195;28;20501;-83
2023/02/16 12:22:43;;;;;;;8.40;5.22;;;13.00;99.90;;;;;;5001694;28;20072;-80
2023/02/16 12:25:36;;;;;;;8.32;4.50;;;13.10;99.90;;;;;;5001987;28;20162;-80
2023/02/16 12:28:16;;;;;;;7.05;4.68;;;13.10;99.90;;;;;;5000768;28;20033;-80
2023/02/16 12:30:51;;;;;;;9.98;4.88;;;13.20;99.90;;;;;;5003433;28;20034;-80
2023/02/16 12:33:39;;;;;;;7.97;4.55;;;13.30;99.90;;;;;;5004984;28;20326;-80
2023/02/16 12:36:18;;;;;;;10.40;4.72;;;13.40;99.90;;;;;;5003877;28;20554;-80
2023/02/16 12:39:08;;;;;;;7.80;4.22;;;13.50;99.90;;;;;;5006147;28;20086;-80
2023/02/16 12:42:03;;;;;;;7.95;4.22;;;13.50;99.90;;;;;;5007836;28;20399;-80
2023/02/16 12:44:43;;;;;;;8.77;4.85;;;13.40;99.90;;;;;;4968399;28;20038;-80
2023/02/16 12:47:18;;;;;;;7.95;4.47;;;13.50;99.90;;;;;;5005619;28;20530;-87
2023/02/16 12:50:06;;;;;;;7.30;4.00;;;13.50;99.90;;;;;;5000945;28;20958;-88
2023/02/16 12:52:45;;;;;;;6.47;4.15;;;13.60;99.90;;;;;;5002467;28;20042;-78
2023/02/16 12:55:19;;;;;;;14.45;5.63;;;13.70;99.80;;;;;;5000485;28;20030;-78
2023/02/16 12:57:55;;;;;;;8.65;4.70;;;13.80;99.90;;;;;;5004192;28;20030;-78
2023/02/16 13:00:47;;;;;;;9.32;5.05;;;13.90;99.90;;;;;;5005780;28;20030;-83
2023/02/16 13:03:22;;;;;;;8.73;4.53;;;14.00;98.90;;;;;;4999222;28;20026;-83
2023/02/16 13:05:55;;;;;;;9.07;4.82;;;14.00;98.10;;;;;;4997796;28;20025;-79
2023/02/16 13:08:37;;;;;;;8.70;4.40;;;14.10;96.10;;;;;;5001371;28;20038;-82
2023/02/16 13:11:18;;;;;;;7.55;4.95;;;14.10;96.50;;;;;;5000925;28;20030;-79
2023/02/16 13:13:47;;;;;;;8.70;5.10;;;14.10;97.70;;;;;;5003291;28;20026;-80
2023/02/16 13:16:38;;;;;;;10.30;5.68;;;14.10;96.80;;;;;;5005418;28;20056;-87
2023/02/16 13:19:04;;;;;;;9.25;5.15;;;13.90;95.90;;;;;;5000325;28;20030;-87
2023/02/16 13:21:53;;;;;;;8.38;4.63;;;13.90;96.40;;;;;;5002329;28;20053;-86
2023/02/16 13:24:36;;;;;;;10.77;4.80;;;13.90;96.30;;;;;;4993750;28;20041;-79
2023/02/16 13:27:11;;;;;;;10.60;4.97;;;13.90;95.90;;;;;;5017178;28;20030;-79
2023/02/16 13:29:55;;;;;;;8.38;4.75;;;14.00;96.00;;;;;;5003833;28;20083;-79
2023/02/16 13:32:30;;;;;;;8.95;5.05;;;13.90;96.20;;;;;;5004333;28;20034;-79
2023/02/16 13:35:07;;;;;;;8.85;4.78;;;13.90;95.40;;;;;;5004538;28;20025;-79
2023/02/16 13:37:57;;;;;;;8.85;4.63;;;13.70;95.90;;;;;;5002173;28;20030;-87
2023/02/16 13:40:22;;;;;;;9.45;5.90;;;13.70;95.40;;;;;;5001631;28;20482;-87